createdAt,value
2023-03-05T00:25:10.054Z,317.00
2023-03-05T00:26:10.046Z,314.00
2023-03-05T00:27:10.021Z,315.00
2023-03-05T00:28:09.996Z,318.00
2023-03-05T00:29:10.022Z,318.00
2023-03-05T00:30:09.974Z,317.00
2023-03-05T00:31:09.986Z,318.00
2023-03-05T00:32:09.985Z,319.00
2023-03-05T00:33:09.914Z,318.00
2023-03-05T00:34:09.903Z,319.00
2023-03-05T00:35:09.906Z,317.00
2023-03-05T00:36:09.863Z,316.00
2023-03-05T00:37:09.871Z,315.00
2023-03-05T00:38:09.813Z,317.00
2023-03-05T00:39:09.814Z,318.00
2023-03-05T00:40:09.828Z,317.00
2023-03-05T00:41:09.777Z,320.00
2023-03-05T00:42:09.745Z,324.00
2023-03-05T00:43:09.760Z,324.00
2023-03-05T00:44:09.713Z,320.00
2023-03-05T00:45:09.731Z,318.00
2023-03-05T00:46:09.752Z,316.00
2023-03-05T00:47:09.685Z,320.00
2023-03-05T00:48:09.657Z,322.00
2023-03-05T00:49:09.627Z,324.00
2023-03-05T00:50:09.626Z,323.00
2023-03-05T00:51:09.615Z,324.00
2023-03-05T00:52:09.581Z,327.00
2023-03-05T00:53:09.571Z,326.00
2023-03-05T00:54:09.560Z,320.00
2023-03-05T00:55:09.554Z,320.00
2023-03-05T00:56:09.544Z,321.00
2023-03-05T00:57:09.513Z,320.00
2023-03-05T00:58:09.504Z,318.00
2023-03-05T00:59:09.466Z,318.00
2023-03-05T01:00:09.448Z,316.00
2023-03-05T01:01:09.431Z,316.00
2023-03-05T01:49:08.648Z,318.00
2023-03-05T01:50:08.646Z,318.00
2023-03-05T01:51:08.613Z,320.00
2023-03-05T01:52:08.611Z,318.00
2023-03-05T01:53:08.612Z,321.00
2023-03-05T01:54:08.578Z,321.00
2023-03-05T01:55:08.559Z,320.00
2023-03-05T01:56:08.546Z,318.00
2023-03-05T01:58:08.519Z,322.00
2023-03-05T01:59:08.491Z,320.00
2023-03-05T02:00:08.491Z,320.00
2023-03-05T02:01:08.624Z,321.00
2023-03-05T02:02:08.458Z,324.00
2023-03-05T02:03:08.435Z,326.00
2023-03-05T02:04:08.556Z,325.00
2023-03-05T02:05:08.421Z,323.00
2023-03-05T02:06:08.404Z,320.00
2023-03-05T02:07:08.362Z,323.00
2023-03-05T02:08:08.326Z,325.00
2023-03-05T02:09:08.330Z,325.00
2023-03-05T02:10:08.302Z,322.00
2023-03-05T02:11:08.318Z,322.00
2023-03-05T02:12:08.270Z,319.00
2023-03-05T02:13:08.251Z,318.00
2023-03-05T02:14:09.976Z,318.00
2023-03-05T02:15:08.208Z,318.00
2023-03-05T02:16:08.270Z,315.00
2023-03-05T02:17:08.168Z,316.00
2023-03-05T02:18:08.184Z,318.00
2023-03-05T02:19:08.152Z,318.00
2023-03-05T02:20:08.115Z,317.00
2023-03-05T02:21:08.113Z,316.00
2023-03-05T02:22:08.091Z,319.00
2023-03-05T02:23:08.053Z,320.00
2023-03-05T02:24:08.056Z,322.00
2023-03-05T02:25:08.032Z,321.00
2023-03-05T02:26:08.033Z,321.00
2023-03-05T02:27:08.012Z,323.00
2023-03-05T02:28:07.983Z,323.00
2023-03-05T02:29:07.975Z,324.00
2023-03-05T02:30:07.939Z,324.00
2023-03-05T02:31:07.936Z,324.00
2023-03-05T02:32:08.170Z,326.00
2023-03-05T02:33:07.925Z,325.00
2023-03-05T02:34:07.885Z,324.00
2023-03-05T02:35:07.860Z,324.00
2023-03-05T02:36:07.855Z,323.00
2023-03-05T02:37:07.852Z,323.00
2023-03-05T02:38:07.808Z,321.00
2023-03-05T02:39:07.809Z,320.00
2023-03-05T02:40:07.762Z,322.00
2023-03-05T02:41:07.743Z,319.00
2023-03-05T02:42:07.726Z,319.00
2023-03-05T02:43:07.720Z,318.00
2023-03-05T02:44:07.709Z,318.00
2023-03-05T02:45:07.731Z,319.00
2023-03-05T02:46:07.769Z,318.00
2023-03-05T02:47:07.656Z,315.00
2023-03-05T02:48:07.665Z,316.00
2023-03-05T02:49:07.629Z,316.00
2023-03-05T02:50:07.633Z,319.00
2023-03-05T02:51:07.611Z,319.00
2023-03-05T02:52:07.632Z,322.00
2023-03-05T02:53:07.594Z,320.00
2023-03-05T02:54:07.572Z,320.00
2023-03-05T02:55:07.543Z,317.00
2023-03-05T02:56:07.568Z,316.00
2023-03-05T02:57:07.536Z,318.00
2023-03-05T02:58:07.552Z,316.00
2023-03-05T02:59:07.501Z,317.00
2023-03-05T03:00:07.516Z,318.00
2023-03-05T03:01:07.470Z,317.00
2023-03-05T03:02:07.457Z,318.00
2023-03-05T03:03:07.502Z,319.00
2023-03-05T03:04:07.407Z,321.00
2023-03-05T03:05:07.387Z,320.00
2023-03-05T03:06:07.371Z,319.00
2023-03-05T03:07:07.338Z,320.00
2023-03-05T03:08:07.342Z,319.00
2023-03-05T03:09:07.310Z,319.00
2023-03-05T03:10:07.325Z,319.00
2023-03-05T03:11:07.286Z,318.00
2023-03-05T03:12:07.270Z,317.00
2023-03-05T03:13:07.284Z,316.00
2023-03-05T03:14:07.233Z,317.00
2023-03-05T03:15:07.252Z,316.00
2023-03-05T03:16:07.222Z,319.00
2023-03-05T03:17:07.235Z,320.00
2023-03-05T03:18:07.179Z,321.00
2023-03-05T03:19:07.161Z,322.00
2023-03-05T03:20:07.156Z,326.00
2023-03-05T03:21:07.150Z,327.00
2023-03-05T03:22:07.120Z,328.00
2023-03-05T03:23:07.107Z,328.00
2023-03-05T03:24:07.080Z,327.00
2023-03-05T03:25:07.065Z,327.00
2023-03-05T03:26:07.046Z,328.00
2023-03-05T03:27:07.065Z,329.00
2023-03-05T03:28:07.012Z,330.00
2023-03-05T03:29:06.995Z,329.00
2023-03-05T03:30:06.975Z,329.00
2023-03-05T03:31:07.107Z,326.00
2023-03-05T03:32:06.977Z,328.00
2023-03-05T03:33:06.927Z,329.00
2023-03-05T03:34:06.913Z,330.00
2023-03-05T03:35:06.896Z,329.00
2023-03-05T03:36:06.894Z,328.00
2023-03-05T03:37:06.900Z,328.00
2023-03-05T03:38:06.857Z,329.00
2023-03-05T03:39:06.831Z,329.00
2023-03-05T03:40:06.796Z,330.00
2023-03-05T03:41:06.789Z,331.00
2023-03-05T03:42:06.755Z,329.00
2023-03-05T03:43:06.757Z,328.00
2023-03-05T03:44:06.724Z,327.00
2023-03-05T03:45:06.688Z,325.00
2023-03-05T03:46:06.717Z,325.00
2023-03-05T03:47:06.652Z,326.00
2023-03-05T03:48:06.642Z,325.00
2023-03-05T03:49:06.632Z,324.00
2023-03-05T03:50:06.616Z,323.00
2023-03-05T03:51:06.630Z,324.00
2023-03-05T03:52:06.568Z,322.00
2023-03-05T03:53:06.565Z,319.00
2023-03-05T03:54:06.547Z,319.00
2023-03-05T03:55:06.536Z,321.00
2023-03-05T03:56:06.504Z,322.00
2023-03-05T03:57:06.509Z,320.00
2023-03-05T03:58:06.562Z,320.00
2023-03-05T03:59:06.470Z,320.00
2023-03-05T04:00:06.457Z,318.00
2023-03-05T04:01:06.413Z,321.00
2023-03-05T04:02:06.490Z,322.00
2023-03-05T04:03:06.360Z,322.00
2023-03-05T04:04:06.388Z,321.00
2023-03-05T04:05:06.319Z,320.00
2023-03-05T04:06:06.337Z,320.00
2023-03-05T04:07:06.283Z,318.00
2023-03-05T04:08:06.261Z,317.00
2023-03-05T04:09:06.257Z,317.00
2023-03-05T04:10:06.269Z,315.00
2023-03-05T04:11:06.219Z,316.00
2023-03-05T04:12:06.198Z,316.00
2023-03-05T04:13:06.164Z,315.00
2023-03-05T04:14:06.208Z,318.00
2023-03-05T04:15:06.147Z,315.00
2023-03-05T04:16:06.158Z,316.00
2023-03-05T04:17:06.096Z,314.00
2023-03-05T04:18:06.066Z,315.00
2023-03-05T04:19:06.044Z,312.00
2023-03-05T04:20:06.020Z,315.00
2023-03-05T04:21:06.025Z,316.00
2023-03-05T04:22:06.006Z,315.00
2023-03-05T04:23:05.974Z,319.00
2023-03-05T04:31:05.913Z,320.00
2023-03-05T04:39:05.692Z,322.00
2023-03-05T04:40:05.723Z,320.00
2023-03-05T04:41:05.661Z,320.00
2023-03-05T04:42:05.660Z,319.00
2023-03-05T04:43:05.624Z,321.00
2023-03-05T04:44:05.616Z,318.00
2023-03-05T04:45:05.594Z,317.00
2023-03-05T04:46:05.648Z,318.00
2023-03-05T04:47:05.596Z,323.00
2023-03-05T04:48:05.578Z,324.00
2023-03-05T04:49:05.538Z,327.00
2023-03-05T04:50:05.578Z,325.00
2023-03-05T04:51:05.508Z,326.00
2023-03-05T04:52:05.503Z,324.00
2023-03-05T04:53:05.472Z,322.00
2023-03-05T04:54:05.464Z,322.00
2023-03-05T04:55:05.430Z,322.00
2023-03-05T04:56:05.443Z,321.00
2023-03-05T04:57:05.409Z,323.00
2023-03-05T04:58:05.397Z,321.00
2023-03-05T04:59:05.365Z,318.00
2023-03-05T05:00:05.345Z,315.00
2023-03-05T05:01:05.339Z,316.00
2023-03-05T05:24:05.896Z,326.00
2023-03-05T10:35:59.229Z,320.00
2023-03-05T10:36:59.175Z,320.00
2023-03-05T10:37:59.140Z,319.00
2023-03-05T10:38:59.115Z,318.00
2023-03-05T10:39:59.105Z,318.00
2023-03-05T10:40:59.112Z,317.00
2023-03-05T10:41:59.036Z,317.00
2023-03-05T10:42:59.001Z,316.00
2023-03-05T10:43:58.970Z,316.00
2023-03-05T10:44:58.969Z,312.00
2023-03-05T10:45:58.931Z,311.00
2023-03-05T10:46:58.877Z,310.00
2023-03-05T10:47:58.846Z,308.00
2023-03-05T10:48:58.858Z,310.00
2023-03-05T10:49:58.807Z,310.00
2023-03-05T10:50:58.771Z,312.00
2023-03-05T10:51:58.736Z,314.00
2023-03-05T10:52:58.702Z,312.00
2023-03-05T10:53:58.664Z,313.00
2023-03-05T10:54:58.648Z,314.00
2023-03-05T10:55:58.617Z,316.00
2023-03-05T10:56:58.595Z,316.00
2023-03-05T10:57:58.524Z,319.00
2023-03-05T10:58:58.480Z,320.00
2023-03-05T10:59:58.461Z,319.00
2023-03-05T11:00:58.479Z,320.00
2023-03-05T11:01:58.384Z,320.00
2023-03-05T11:02:58.359Z,319.00
2023-03-05T11:03:58.333Z,315.00
2023-03-05T11:04:58.295Z,313.00
2023-03-05T11:05:58.273Z,316.00
2023-03-05T11:06:58.256Z,317.00
2023-03-05T11:07:58.195Z,315.00
2023-03-05T11:08:58.174Z,314.00
2023-03-05T11:09:58.158Z,314.00
2023-03-05T11:10:58.127Z,314.00
2023-03-05T11:11:58.085Z,316.00
2023-03-05T11:12:58.079Z,317.00
2023-03-05T11:13:58.035Z,315.00
2023-03-05T11:14:57.991Z,315.00
2023-03-05T11:15:57.988Z,315.00
2023-03-05T11:16:57.925Z,319.00
2023-03-05T11:17:57.890Z,320.00
2023-03-05T11:18:57.870Z,318.00
2023-03-05T11:19:57.841Z,319.00
2023-03-05T11:20:57.805Z,319.00
2023-03-05T11:21:59.805Z,320.00
2023-03-05T11:22:57.768Z,319.00
2023-03-05T11:23:57.728Z,316.00
2023-03-05T11:24:57.698Z,317.00
2023-03-05T11:25:57.690Z,314.00
2023-03-05T11:26:57.621Z,313.00
2023-03-05T11:27:57.598Z,315.00
2023-03-05T11:28:57.546Z,315.00
2023-03-05T11:29:57.510Z,315.00
2023-03-05T11:30:57.566Z,317.00
2023-03-05T11:31:57.457Z,313.00
2023-03-05T11:32:57.417Z,313.00
2023-03-05T11:33:57.384Z,312.00
2023-03-05T11:34:57.349Z,312.00
2023-03-05T11:35:57.323Z,309.00
2023-03-05T11:36:57.283Z,311.00
2023-03-05T11:37:57.255Z,314.00
2023-03-05T11:38:57.207Z,315.00
2023-03-05T11:39:57.176Z,315.00
2023-03-05T11:40:57.207Z,315.00
2023-03-05T11:41:57.127Z,315.00
2023-03-05T11:42:57.078Z,315.00
2023-03-05T11:43:57.090Z,316.00
2023-03-05T11:44:57.022Z,315.00
2023-03-05T11:45:56.999Z,313.00
2023-03-05T11:46:56.972Z,313.00
2023-03-05T11:47:56.955Z,312.00
2023-03-05T11:48:56.872Z,309.00
2023-03-05T11:49:56.870Z,306.00
2023-03-05T11:50:56.835Z,308.00
2023-03-05T11:51:56.981Z,308.00
2023-03-05T11:52:56.741Z,311.00
2023-03-05T11:53:56.713Z,310.00
2023-03-05T11:54:56.676Z,308.00
2023-03-05T11:55:56.630Z,309.00
2023-03-05T11:56:56.630Z,311.00
2023-03-05T11:57:56.559Z,313.00
2023-03-05T11:58:56.516Z,312.00
2023-03-05T11:59:56.480Z,313.00
2023-03-05T12:00:56.452Z,312.00
2023-03-05T12:01:56.431Z,312.00
2023-03-05T12:02:56.407Z,313.00
2023-03-05T12:03:56.362Z,313.00
2023-03-05T12:04:56.303Z,311.00
2023-03-05T12:05:56.278Z,314.00
2023-03-05T12:06:56.245Z,315.00
2023-03-05T12:07:56.208Z,313.00
2023-03-05T12:08:56.170Z,312.00
2023-03-05T12:09:56.133Z,312.00
2023-03-05T12:10:56.091Z,313.00
2023-03-05T12:11:56.097Z,311.00
2023-03-05T12:12:56.010Z,309.00
2023-03-05T12:13:55.986Z,308.00
2023-03-05T12:14:55.925Z,310.00
2023-03-05T12:15:55.919Z,312.00
2023-03-05T12:16:55.850Z,308.00
2023-03-05T12:17:55.841Z,309.00
2023-03-05T12:18:55.778Z,308.00
2023-03-05T12:19:55.734Z,307.00
2023-03-05T12:20:55.706Z,308.00
2023-03-05T12:21:55.678Z,310.00
2023-03-05T12:22:55.655Z,311.00
2023-03-05T12:23:55.593Z,312.00
2023-03-05T12:24:55.556Z,313.00
2023-03-05T12:25:55.517Z,313.00
2023-03-05T12:26:55.486Z,313.00
2023-03-05T12:27:55.472Z,313.00
2023-03-05T12:28:55.437Z,313.00
2023-03-05T12:29:55.402Z,313.00
2023-03-05T12:30:55.341Z,314.00
2023-03-05T15:39:49.299Z,309.00
2023-03-05T16:13:48.541Z,316.00
2023-03-05T16:15:48.501Z,315.00
2023-03-05T16:17:48.420Z,314.00
2023-03-05T16:18:48.412Z,312.00
2023-03-05T16:19:48.381Z,311.00
2023-03-05T16:20:48.359Z,310.00
2023-03-05T16:21:48.332Z,311.00
2023-03-05T16:22:48.325Z,310.00
2023-03-05T16:23:48.300Z,310.00
2023-03-05T16:24:48.342Z,311.00
2023-03-05T16:25:48.279Z,309.00
2023-03-05T16:26:48.198Z,310.00
2023-03-05T16:27:48.175Z,307.00
2023-03-05T16:28:48.152Z,307.00
2023-03-05T16:29:48.116Z,307.00
2023-03-05T16:30:48.591Z,307.00
2023-03-05T16:31:48.142Z,307.00
2023-03-05T16:32:48.021Z,308.00
2023-03-05T16:33:47.999Z,308.00
2023-03-05T16:34:47.971Z,306.00
2023-03-05T16:35:47.966Z,305.00
2023-03-05T16:36:47.976Z,306.00
2023-03-05T16:37:47.866Z,307.00
2023-03-05T16:38:47.849Z,308.00
2023-03-05T16:39:47.861Z,305.00
2023-03-05T16:41:08.312Z,306.00
2023-03-05T16:41:48.755Z,308.00
2023-03-05T16:42:47.755Z,307.00
2023-03-05T16:43:47.689Z,307.00
2023-03-05T16:44:47.667Z,307.00
2023-03-05T16:45:47.679Z,309.00
2023-03-05T16:46:47.651Z,308.00
2023-03-05T16:47:47.613Z,308.00
2023-03-05T16:48:47.582Z,307.00
2023-03-05T16:49:47.569Z,310.00
2023-03-05T16:50:47.541Z,310.00
2023-03-05T16:51:47.525Z,308.00
2023-03-05T16:52:47.479Z,307.00
2023-03-05T16:53:47.447Z,304.00
2023-03-05T16:54:47.433Z,305.00
2023-03-05T16:55:47.391Z,304.00
2023-03-05T16:56:47.384Z,304.00
2023-03-05T16:57:47.373Z,305.00
2023-03-05T16:58:47.346Z,307.00
2023-03-05T16:59:47.315Z,309.00
2023-03-05T17:00:47.327Z,310.00
2023-03-05T17:01:47.252Z,309.00
2023-03-05T17:02:47.232Z,311.00
2023-03-05T17:03:47.307Z,312.00
2023-03-05T17:04:47.172Z,314.00
2023-03-05T17:05:47.157Z,314.00
2023-03-05T17:06:47.138Z,315.00
2023-03-05T17:07:47.115Z,315.00
2023-03-05T17:08:47.094Z,314.00
2023-03-05T17:09:47.083Z,313.00
2023-03-05T17:10:47.062Z,312.00
2023-03-05T17:11:47.068Z,311.00
2023-03-05T17:12:47.034Z,313.00
2023-03-05T17:13:48.987Z,311.00
2023-03-05T17:14:47.081Z,314.00
2023-03-05T17:15:46.953Z,313.00
2023-03-05T17:16:47.053Z,312.00
2023-03-05T17:17:46.919Z,312.00
2023-03-05T17:18:46.910Z,315.00
2023-03-05T17:19:46.876Z,316.00
2023-03-05T17:20:46.865Z,314.00
2023-03-05T17:21:46.839Z,312.00
2023-03-05T17:22:46.828Z,309.00
2023-03-05T17:23:46.794Z,309.00
2023-03-05T17:24:46.797Z,309.00
2023-03-05T17:25:46.750Z,308.00
2023-03-05T17:26:46.721Z,309.00
2023-03-05T17:27:46.700Z,312.00
2023-03-05T17:28:46.668Z,313.00
2023-03-05T17:29:46.655Z,312.00
2023-03-05T17:30:46.631Z,311.00
2023-03-05T17:31:46.831Z,311.00
2023-03-05T17:32:46.573Z,313.00
2023-03-05T17:33:46.569Z,313.00
2023-03-05T17:34:46.529Z,312.00
2023-03-05T17:35:46.525Z,317.00
2023-03-05T17:36:46.497Z,318.00
2023-03-05T17:37:46.485Z,318.00
2023-03-05T17:38:46.481Z,318.00
2023-03-05T17:39:46.430Z,318.00
2023-03-05T17:40:46.413Z,316.00
2023-03-05T17:41:46.398Z,317.00
2023-03-05T17:42:46.408Z,316.00
2023-03-05T17:43:46.373Z,317.00
2023-03-05T17:44:46.364Z,317.00
2023-03-05T17:45:46.363Z,318.00
2023-03-05T17:46:46.306Z,319.00
2023-03-05T17:47:46.274Z,318.00
2023-03-05T17:48:46.274Z,318.00
2023-03-05T17:49:46.248Z,317.00
2023-03-05T17:50:46.251Z,318.00
2023-03-05T17:51:46.179Z,317.00
2023-03-05T17:52:46.174Z,317.00
2023-03-05T17:53:46.152Z,317.00
2023-03-05T17:54:46.118Z,315.00
2023-03-05T17:55:46.114Z,314.00
2023-03-05T17:56:46.087Z,312.00
2023-03-05T17:57:46.083Z,313.00
2023-03-05T17:58:46.057Z,315.00
2023-03-05T17:59:46.032Z,313.00
2023-03-05T18:00:46.089Z,311.00
2023-03-05T18:01:45.998Z,311.00
2023-03-05T18:02:45.982Z,311.00
2023-03-05T18:03:45.959Z,310.00
2023-03-05T18:04:45.953Z,310.00
2023-03-05T18:05:45.930Z,312.00
2023-03-05T18:06:45.898Z,312.00
2023-03-05T18:07:45.896Z,313.00
2023-03-05T18:08:45.866Z,316.00
2023-03-05T18:09:45.839Z,320.00
2023-03-05T18:10:45.830Z,319.00
2023-03-05T18:11:45.802Z,319.00
2023-03-05T18:12:45.806Z,320.00
2023-03-05T18:13:45.780Z,320.00
2023-03-05T18:14:45.764Z,320.00
2023-03-05T18:15:45.749Z,322.00
2023-03-05T18:16:45.756Z,324.00
2023-03-05T18:17:45.717Z,324.00
2023-03-05T18:18:45.679Z,324.00
2023-03-05T18:19:45.654Z,324.00
2023-03-05T18:20:45.665Z,321.00
2023-03-05T18:21:45.617Z,323.00
2023-03-05T18:22:45.628Z,325.00
2023-03-05T18:23:45.594Z,325.00
2023-03-05T18:24:45.557Z,326.00
2023-03-05T18:25:45.543Z,327.00
2023-03-05T18:26:45.529Z,328.00
2023-03-05T18:27:45.530Z,330.00
2023-03-05T18:28:45.504Z,327.00
2023-03-05T18:29:45.476Z,326.00
2023-03-05T18:30:45.529Z,326.00
2023-03-05T18:31:45.457Z,325.00
2023-03-05T18:32:45.428Z,326.00
2023-03-05T18:33:45.426Z,327.00
2023-03-05T18:34:45.406Z,324.00
2023-03-05T18:35:45.430Z,326.00
2023-03-05T18:36:45.387Z,325.00
2023-03-05T18:37:45.368Z,324.00
2023-03-05T18:38:45.371Z,323.00
2023-03-05T18:39:45.343Z,324.00
2023-03-05T18:40:45.336Z,323.00
2023-03-05T18:41:45.337Z,323.00
2023-03-05T18:42:45.333Z,322.00
2023-03-05T22:23:41.823Z,331.00
2023-03-05T22:24:41.805Z,332.00
2023-03-05T22:25:41.809Z,329.00
2023-03-05T22:26:41.782Z,326.00
2023-03-05T22:27:41.793Z,326.00
2023-03-05T22:28:41.733Z,327.00
2023-03-05T22:29:41.730Z,327.00
2023-03-05T22:30:41.731Z,326.00
2023-03-05T22:31:41.681Z,327.00
2023-03-05T22:32:41.676Z,329.00
2023-03-05T22:33:41.654Z,329.00
2023-03-05T22:34:41.678Z,330.00
2023-03-05T22:35:41.682Z,329.00
2023-03-05T22:36:41.613Z,328.00
2023-03-05T22:37:41.600Z,326.00
2023-03-05T22:38:41.580Z,325.00
2023-03-05T22:39:41.552Z,326.00
2023-03-05T22:40:41.541Z,327.00
2023-03-05T22:41:41.532Z,329.00
2023-03-05T22:42:41.519Z,330.00
2023-03-05T22:43:41.490Z,330.00
2023-03-05T22:44:41.463Z,331.00
2023-03-05T22:45:41.610Z,332.00
2023-03-05T22:46:41.429Z,333.00
2023-03-05T22:47:41.425Z,332.00
2023-03-05T22:48:41.398Z,332.00
2023-03-05T22:49:41.383Z,331.00
2023-03-05T22:50:41.363Z,329.00
2023-03-05T22:51:41.341Z,331.00
2023-03-05T22:52:41.344Z,330.00
2023-03-05T23:13:41.052Z,330.00
2023-03-05T23:28:40.901Z,327.00
2023-03-05T23:54:40.623Z,331.00
